createdAt,value
2023-04-18T00:00:10.832Z,10.43
2023-04-18T00:02:44.266Z,11.25
2023-04-18T00:05:13.583Z,11.02
2023-04-18T00:07:43.832Z,10.65
2023-04-18T00:10:12.942Z,10.90
2023-04-18T00:12:43.047Z,11.32
2023-04-18T00:15:13.744Z,10.43
2023-04-18T00:17:42.779Z,10.07
2023-04-18T00:20:12.835Z,10.00
2023-04-18T00:22:45.173Z,11.50
2023-04-18T00:25:14.111Z,10.57
2023-04-18T00:27:43.303Z,10.95
2023-04-18T00:30:13.184Z,9.38
2023-04-18T00:32:41.984Z,9.98
2023-04-18T00:35:11.017Z,10.50
2023-04-18T00:37:40.224Z,9.98
2023-04-18T00:40:13.051Z,10.35
2023-04-18T00:42:41.691Z,9.18
2023-04-18T00:45:11.885Z,9.23
2023-04-18T00:47:40.677Z,9.00
2023-04-18T00:50:11.872Z,8.93
2023-04-18T00:52:40.760Z,9.30
2023-04-18T00:55:12.202Z,8.75
2023-04-18T00:57:41.642Z,9.50
2023-04-18T01:00:11.625Z,9.10
2023-04-18T01:02:43.195Z,9.57
2023-04-18T01:05:12.172Z,9.07
2023-04-18T01:07:41.907Z,8.63
2023-04-18T01:10:12.728Z,9.95
2023-04-18T01:12:42.422Z,9.47
2023-04-18T01:15:11.868Z,9.55
2023-04-18T01:17:41.003Z,9.27
2023-04-18T01:20:12.365Z,9.90
2023-04-18T01:22:42.183Z,8.52
2023-04-18T01:25:13.651Z,7.90
2023-04-18T01:27:42.395Z,7.63
2023-04-18T01:30:12.882Z,8.43
2023-04-18T01:32:41.652Z,7.40
2023-04-18T01:35:11.261Z,8.02
2023-04-18T01:37:40.266Z,7.83
2023-04-18T01:40:12.844Z,7.55
2023-04-18T01:42:41.564Z,6.25
2023-04-18T01:45:14.153Z,7.53
2023-04-18T01:47:43.230Z,5.78
2023-04-18T01:50:15.344Z,6.37
2023-04-18T01:52:44.968Z,7.40
2023-04-18T01:55:15.270Z,6.50
2023-04-18T01:57:43.962Z,7.38
2023-04-18T02:00:14.237Z,6.60
2023-04-18T02:02:45.857Z,7.87
2023-04-18T02:05:14.637Z,8.90
2023-04-18T02:07:43.468Z,8.05
2023-04-18T02:10:14.332Z,7.95
2023-04-18T02:12:43.169Z,8.10
2023-04-18T02:15:13.019Z,8.10
2023-04-18T02:17:42.470Z,9.00
2023-04-18T02:20:13.522Z,7.90
2023-04-18T02:22:42.342Z,7.28
2023-04-18T02:25:12.046Z,7.53
2023-04-18T02:27:42.626Z,8.37
2023-04-18T02:30:12.285Z,7.78
2023-04-18T02:32:41.188Z,8.13
2023-04-18T02:35:10.500Z,6.60
2023-04-18T02:37:39.231Z,7.05
2023-04-18T02:40:10.145Z,7.13
2023-04-18T02:42:38.866Z,7.30
2023-04-18T02:45:10.824Z,7.80
2023-04-18T02:47:47.380Z,8.20
2023-04-18T02:50:23.058Z,7.38
2023-04-18T02:52:52.264Z,8.40
2023-04-18T02:55:23.177Z,5.75
2023-04-18T02:57:53.587Z,6.95
2023-04-18T03:01:00.080Z,6.32
2023-04-18T03:03:28.846Z,7.05
2023-04-18T03:06:17.853Z,6.63
2023-04-18T03:08:46.753Z,7.07
2023-04-18T03:11:16.214Z,4.60
2023-04-18T03:13:44.986Z,5.25
2023-04-18T03:16:15.979Z,4.78
2023-04-18T03:18:45.395Z,6.37
2023-04-18T03:21:14.893Z,6.15
2023-04-18T03:23:43.988Z,4.53
2023-04-18T03:26:14.012Z,6.32
2023-04-18T03:28:44.186Z,5.50
2023-04-18T03:31:13.509Z,6.23
2023-04-18T03:33:47.297Z,5.55
2023-04-18T03:36:18.600Z,5.82
2023-04-18T03:38:47.536Z,6.03
2023-04-18T03:41:16.251Z,5.68
2023-04-18T03:43:44.977Z,5.50
2023-04-18T03:46:13.949Z,5.43
2023-04-18T03:48:46.149Z,5.25
2023-04-18T03:51:23.527Z,5.03
2023-04-18T03:53:52.277Z,6.72
2023-04-18T03:56:21.025Z,5.23
2023-04-18T03:58:52.860Z,6.35
2023-04-18T04:01:23.072Z,5.93
2023-04-18T04:03:53.896Z,5.15
2023-04-18T04:06:24.650Z,5.55
2023-04-18T04:08:53.355Z,6.43
2023-04-18T04:11:26.083Z,5.97
2023-04-18T04:13:55.577Z,5.50
2023-04-18T04:16:30.002Z,6.88
2023-04-18T04:18:58.882Z,6.38
2023-04-18T04:21:35.964Z,5.77
2023-04-18T04:24:07.012Z,7.68
2023-04-18T04:26:42.791Z,6.20
2023-04-18T04:29:16.458Z,6.28
2023-04-18T04:31:47.117Z,5.78
2023-04-18T04:34:20.459Z,5.00
2023-04-18T04:36:51.254Z,6.55
2023-04-18T04:39:20.334Z,6.10
2023-04-18T04:42:07.658Z,5.80
2023-04-18T04:44:45.162Z,7.10
2023-04-18T04:47:14.239Z,6.30
2023-04-18T04:49:42.994Z,7.20
2023-04-18T04:52:13.186Z,6.82
2023-04-18T04:54:42.055Z,7.30
2023-04-18T04:57:14.106Z,6.82
2023-04-18T04:59:42.840Z,6.70
2023-04-18T05:02:12.920Z,7.25
2023-04-18T05:04:43.178Z,7.15
2023-04-18T05:07:13.378Z,8.63
2023-04-18T05:09:42.011Z,6.78
2023-04-18T05:12:10.889Z,7.90
2023-04-18T05:14:39.702Z,8.38
2023-04-18T05:17:08.623Z,8.13
2023-04-18T05:19:37.523Z,8.05
2023-04-18T05:22:06.409Z,8.30
2023-04-18T05:24:36.451Z,9.03
2023-04-18T05:27:06.012Z,8.63
2023-04-18T05:29:34.939Z,9.30
2023-04-18T05:32:03.644Z,8.52
2023-04-18T05:34:32.375Z,9.10
2023-04-18T05:37:01.193Z,10.07
2023-04-18T05:39:30.095Z,9.20
2023-04-18T05:42:00.920Z,9.70
2023-04-18T05:44:30.539Z,9.70
2023-04-18T05:46:59.262Z,9.52
2023-04-18T05:49:28.009Z,9.57
2023-04-18T05:51:57.386Z,9.77
2023-04-18T05:54:26.339Z,10.85
2023-04-18T05:56:57.067Z,10.38
2023-04-18T05:59:27.984Z,9.52
2023-04-18T06:01:57.360Z,10.33
2023-04-18T06:04:26.220Z,8.10
2023-04-18T06:06:55.121Z,8.88
2023-04-18T06:09:23.948Z,9.57
2023-04-18T06:11:52.881Z,9.30
2023-04-18T06:14:21.532Z,8.60
2023-04-18T06:16:51.781Z,9.80
2023-04-18T06:19:20.536Z,9.15
2023-04-18T06:21:50.272Z,9.23
2023-04-18T06:24:18.996Z,8.73
2023-04-18T06:26:47.741Z,12.00
2023-04-18T06:29:18.158Z,9.70
2023-04-18T06:31:48.469Z,10.50
2023-04-18T06:34:18.971Z,10.10
2023-04-18T06:36:48.252Z,13.52
2023-04-18T06:39:17.095Z,12.93
2023-04-18T06:41:45.947Z,10.82
2023-04-18T06:44:24.610Z,9.25
2023-04-18T06:46:53.440Z,9.80
2023-04-18T06:49:26.446Z,9.73
2023-04-18T06:51:55.678Z,11.30
2023-04-18T06:54:24.428Z,9.38
2023-04-18T06:56:54.609Z,11.98
2023-04-18T06:59:23.525Z,11.95
2023-04-18T07:01:52.840Z,10.57
2023-04-18T07:04:23.008Z,11.43
2023-04-18T07:06:54.411Z,10.27
2023-04-18T07:09:23.669Z,9.73
2023-04-18T07:11:52.989Z,9.32
2023-04-18T07:14:24.268Z,8.43
2023-04-18T07:16:53.553Z,15.77
2023-04-18T07:19:23.756Z,10.25
2023-04-18T07:21:52.443Z,16.15
2023-04-18T07:24:23.614Z,13.90
2023-04-18T07:26:54.797Z,9.57
2023-04-18T07:29:24.025Z,7.03
2023-04-18T07:31:53.202Z,6.85
2023-04-18T07:34:23.627Z,5.78
2023-04-18T07:36:52.409Z,5.90
2023-04-18T07:39:21.077Z,4.85
2023-04-18T07:41:50.009Z,6.60
2023-04-18T07:44:18.751Z,6.10
2023-04-18T07:46:47.525Z,5.47
2023-04-18T07:49:16.640Z,4.53
2023-04-18T07:51:46.952Z,4.65
2023-04-18T07:54:15.821Z,4.73
2023-04-18T07:56:44.705Z,5.90
2023-04-18T07:59:13.825Z,5.50
2023-04-18T08:01:42.696Z,4.35
2023-04-18T08:04:12.008Z,5.18
2023-04-18T08:06:40.873Z,5.63
2023-04-18T08:09:12.058Z,4.90
2023-04-18T08:11:44.135Z,5.13
2023-04-18T08:14:13.244Z,4.88
2023-04-18T08:16:42.115Z,1.92
2023-04-18T08:19:11.419Z,3.80
2023-04-18T08:21:40.267Z,4.53
2023-04-18T08:24:10.693Z,3.00
2023-04-18T08:26:40.675Z,2.50
2023-04-18T08:29:09.386Z,2.97
2023-04-18T08:31:38.161Z,2.83
2023-04-18T08:34:23.539Z,2.63
2023-04-18T08:36:53.288Z,1.88
2023-04-18T08:39:26.633Z,1.25
2023-04-18T08:42:02.417Z,2.25
2023-04-18T08:44:32.849Z,0.93
2023-04-18T08:47:03.426Z,1.88
2023-04-18T08:49:33.743Z,1.83
2023-04-18T08:52:06.567Z,1.85
2023-04-18T08:54:38.646Z,2.50
2023-04-18T08:57:12.598Z,2.50
2023-04-18T08:59:43.129Z,2.83
2023-04-18T09:02:22.410Z,2.20
2023-04-18T09:04:53.742Z,2.97
2023-04-18T09:07:30.919Z,2.80
2023-04-18T09:10:12.724Z,2.93
2023-04-18T09:13:03.972Z,2.33
2023-04-18T09:15:47.475Z,2.80
2023-04-18T09:18:18.558Z,2.50
2023-04-18T09:20:49.996Z,2.88
2023-04-18T09:23:27.151Z,2.00
2023-04-18T09:25:59.118Z,2.17
2023-04-18T09:28:32.208Z,2.60
2023-04-18T09:31:12.103Z,2.63
2023-04-18T09:33:46.464Z,2.20
2023-04-18T09:36:21.070Z,1.30
2023-04-18T09:38:53.675Z,0.80
2023-04-18T09:41:26.067Z,1.88
2023-04-18T09:44:15.128Z,1.90
2023-04-18T09:46:47.639Z,1.85
2023-04-18T09:49:17.632Z,1.80
2023-04-18T09:51:47.274Z,2.05
2023-04-18T09:54:18.417Z,1.67
2023-04-18T09:56:51.870Z,1.83
2023-04-18T09:59:42.324Z,1.80
2023-04-18T10:02:18.911Z,2.30
2023-04-18T10:04:50.471Z,2.55
2023-04-18T10:07:20.162Z,1.95
2023-04-18T10:09:50.692Z,3.25
2023-04-18T10:12:21.592Z,5.18
2023-04-18T10:14:51.300Z,4.83
2023-04-18T10:17:22.453Z,1.40
2023-04-18T10:20:08.066Z,2.40
2023-04-18T10:22:36.851Z,5.18
2023-04-18T10:25:06.882Z,3.10
2023-04-18T10:28:01.340Z,2.90
2023-04-18T10:31:05.016Z,3.47
2023-04-18T10:33:42.516Z,1.88
2023-04-18T10:36:20.538Z,2.33
2023-04-18T10:38:51.577Z,1.30
2023-04-18T10:41:24.046Z,0.97
2023-04-18T10:44:30.479Z,1.80
2023-04-18T10:47:24.212Z,1.15
2023-04-18T10:50:11.915Z,1.98
2023-04-18T10:52:41.787Z,1.88
2023-04-18T10:55:19.575Z,1.90
2023-04-18T10:57:51.639Z,2.30
2023-04-18T11:00:24.723Z,1.83
2023-04-18T11:02:57.812Z,2.10
2023-04-18T11:05:29.383Z,2.00
2023-04-18T11:07:58.130Z,1.00
2023-04-18T11:10:29.646Z,2.22
2023-04-18T11:13:04.671Z,2.20
2023-04-18T11:15:39.948Z,1.50
2023-04-18T11:18:10.864Z,1.92
2023-04-18T11:20:47.255Z,1.47
2023-04-18T11:23:22.994Z,2.03
2023-04-18T11:25:53.791Z,1.48
2023-04-18T11:28:25.094Z,1.60
2023-04-18T11:31:00.539Z,2.35
2023-04-18T11:33:30.417Z,1.20
2023-04-18T11:36:00.203Z,1.42
2023-04-18T11:38:31.354Z,1.35
2023-04-18T11:41:00.453Z,1.60
2023-04-18T11:43:29.153Z,1.20
2023-04-18T11:46:01.798Z,0.70
2023-04-18T11:48:36.480Z,0.98
2023-04-18T11:51:06.492Z,1.50
2023-04-18T11:53:36.645Z,1.38
2023-04-18T11:56:06.557Z,1.60
2023-04-18T11:58:38.782Z,1.20
2023-04-18T12:01:24.916Z,1.38
2023-04-18T12:04:05.255Z,0.70
2023-04-18T12:06:50.318Z,1.13
2023-04-18T12:09:19.762Z,1.10
2023-04-18T12:11:59.446Z,1.20
2023-04-18T12:14:28.524Z,0.68
2023-04-18T12:16:58.694Z,0.88
2023-04-18T12:19:28.869Z,0.90
2023-04-18T12:22:01.679Z,0.63
2023-04-18T12:24:32.407Z,0.80
2023-04-18T12:27:01.354Z,0.65
2023-04-18T12:29:30.984Z,0.90
2023-04-18T12:32:01.092Z,0.70
2023-04-18T12:34:30.046Z,0.50
2023-04-18T12:36:58.796Z,0.70
2023-04-18T12:39:27.517Z,0.98
2023-04-18T12:41:57.374Z,1.15
2023-04-18T12:44:28.320Z,1.10
2023-04-18T12:47:01.766Z,0.63
2023-04-18T12:49:30.496Z,0.67
2023-04-18T12:51:59.130Z,1.48
2023-04-18T12:54:27.802Z,0.70
2023-04-18T12:56:56.486Z,0.60
2023-04-18T12:59:25.252Z,0.50
2023-04-18T13:01:53.951Z,0.87
2023-04-18T13:04:24.343Z,1.08
2023-04-18T13:06:53.146Z,1.05
2023-04-18T13:09:21.809Z,0.70
2023-04-18T13:11:50.539Z,1.60
2023-04-18T13:14:19.252Z,0.70
2023-04-18T13:16:48.812Z,0.68
2023-04-18T13:19:17.542Z,1.38
2023-04-18T13:21:49.580Z,1.10
2023-04-18T13:24:18.474Z,0.75
2023-04-18T13:26:47.343Z,1.37
2023-04-18T13:29:16.270Z,1.30
2023-04-18T13:31:45.206Z,1.48
2023-04-18T13:34:14.163Z,0.80
2023-04-18T13:36:43.060Z,2.08
2023-04-18T13:39:14.920Z,0.73
2023-04-18T13:41:43.870Z,0.60
2023-04-18T13:44:12.523Z,0.73
2023-04-18T13:46:41.281Z,1.00
2023-04-18T13:49:10.008Z,0.88
2023-04-18T13:51:38.701Z,0.83
2023-04-18T13:54:07.583Z,0.55
2023-04-18T13:56:39.961Z,0.57
2023-04-18T13:59:08.705Z,0.90
2023-04-18T14:01:37.408Z,1.10
2023-04-18T14:04:06.706Z,0.90
2023-04-18T14:06:35.657Z,1.67
2023-04-18T14:09:04.262Z,0.80
2023-04-18T14:11:33.257Z,0.47
2023-04-18T14:14:07.238Z,0.60
2023-04-18T14:16:36.282Z,0.70
2023-04-18T14:19:05.223Z,0.90
2023-04-18T14:21:33.893Z,0.65
2023-04-18T14:24:02.645Z,0.93
2023-04-18T14:26:31.538Z,0.70
2023-04-18T14:29:00.628Z,0.97
2023-04-18T14:31:30.720Z,0.90
2023-04-18T14:33:59.608Z,0.52
2023-04-18T14:36:28.464Z,0.60
2023-04-18T14:38:57.174Z,0.60
2023-04-18T14:41:25.839Z,0.40
2023-04-18T14:43:57.414Z,0.63
2023-04-18T14:46:28.287Z,0.45
2023-04-18T14:48:59.515Z,0.70
2023-04-18T14:51:28.259Z,0.30
2023-04-18T14:53:56.987Z,0.47
2023-04-18T14:56:25.754Z,0.73
2023-04-18T14:58:54.512Z,0.75
2023-04-18T15:01:23.213Z,0.65
2023-04-18T15:03:52.447Z,0.82
2023-04-18T15:06:23.161Z,0.40
2023-04-18T15:08:54.468Z,1.00
2023-04-18T15:11:24.395Z,0.60
2023-04-18T15:13:55.941Z,0.65
2023-04-18T15:16:24.751Z,0.40
2023-04-18T15:18:53.529Z,0.80
2023-04-18T15:21:23.651Z,0.73
2023-04-18T15:23:52.391Z,0.70
2023-04-18T15:26:21.172Z,0.80
2023-04-18T15:28:49.902Z,0.88
2023-04-18T15:31:18.564Z,0.70
2023-04-18T15:33:47.248Z,0.57
2023-04-18T15:36:15.917Z,0.80
2023-04-18T15:38:46.283Z,1.40
2023-04-18T15:41:14.916Z,1.55
2023-04-18T15:43:45.412Z,1.43
2023-04-18T15:46:14.365Z,0.95
2023-04-18T15:48:43.043Z,1.38
2023-04-18T15:51:11.717Z,1.35
2023-04-18T15:53:40.633Z,1.20
2023-04-18T15:56:11.190Z,0.77
2023-04-18T15:58:39.970Z,0.57
2023-04-18T16:01:09.543Z,0.90
2023-04-18T16:03:38.768Z,1.90
2023-04-18T16:06:08.101Z,0.75
2023-04-18T16:08:37.178Z,1.00
2023-04-18T16:11:06.127Z,0.60
2023-04-18T16:13:38.398Z,0.55
2023-04-18T16:16:08.089Z,0.50
2023-04-18T16:18:36.822Z,0.70
2023-04-18T16:21:06.008Z,0.53
2023-04-18T16:23:34.756Z,0.60
2023-04-18T16:26:03.554Z,0.73
2023-04-18T16:28:37.554Z,0.45
2023-04-18T16:31:08.015Z,0.68
2023-04-18T16:33:36.838Z,1.50
2023-04-18T16:36:07.362Z,0.60
2023-04-18T16:38:36.166Z,0.98
2023-04-18T16:41:05.017Z,1.85
2023-04-18T16:43:36.520Z,1.25
2023-04-18T16:46:07.590Z,1.03
2023-04-18T16:48:39.584Z,0.73
2023-04-18T16:51:08.262Z,0.73
2023-04-18T16:53:37.027Z,1.00
2023-04-18T16:56:07.930Z,0.98
2023-04-18T16:58:36.686Z,0.53
2023-04-18T17:01:08.165Z,0.88
2023-04-18T17:03:38.562Z,0.93
2023-04-18T17:06:27.607Z,0.90
2023-04-18T17:09:08.390Z,1.00
2023-04-18T17:11:42.705Z,1.40
2023-04-18T17:14:13.079Z,1.17
2023-04-18T17:16:43.204Z,1.17
2023-04-18T17:19:13.942Z,1.65
2023-04-18T17:21:44.064Z,1.92
2023-04-18T17:24:12.872Z,1.30
2023-04-18T17:26:41.484Z,2.45
2023-04-18T17:29:10.571Z,1.80
2023-04-18T17:31:39.257Z,1.10
2023-04-18T17:34:08.044Z,1.02
2023-04-18T17:36:38.135Z,1.30
2023-04-18T17:39:06.874Z,1.10
2023-04-18T17:41:38.247Z,2.80
2023-04-18T17:44:08.561Z,2.65
2023-04-18T17:46:37.787Z,1.35
2023-04-18T17:49:06.634Z,2.17
2023-04-18T17:51:35.388Z,1.02
2023-04-18T17:54:06.184Z,1.98
2023-04-18T17:56:35.059Z,0.80
2023-04-18T17:59:03.874Z,1.10
2023-04-18T18:01:32.974Z,1.00
2023-04-18T18:04:02.633Z,0.60
2023-04-18T18:06:31.463Z,1.38
2023-04-18T18:09:00.275Z,4.07
2023-04-18T18:11:30.465Z,1.75
2023-04-18T18:13:59.303Z,1.60
2023-04-18T18:16:28.177Z,0.70
2023-04-18T18:18:57.017Z,0.80
2023-04-18T18:21:26.373Z,1.83
2023-04-18T18:23:55.107Z,1.80
2023-04-18T18:26:26.507Z,1.50
2023-04-18T18:28:56.637Z,1.10
2023-04-18T18:31:25.786Z,1.23
2023-04-18T18:33:54.657Z,1.77
2023-04-18T18:36:23.396Z,1.00
2023-04-18T18:38:52.119Z,2.17
2023-04-18T18:41:23.420Z,1.90
2023-04-18T18:43:52.674Z,1.42
2023-04-18T18:46:22.704Z,1.40
2023-04-18T18:48:52.022Z,1.88
2023-04-18T18:51:20.796Z,1.20
2023-04-18T18:53:49.513Z,0.70
2023-04-18T18:56:18.253Z,1.15
2023-04-18T18:58:47.205Z,1.92
2023-04-18T19:01:16.000Z,2.15
2023-04-18T19:03:46.299Z,1.73
2023-04-18T19:06:15.457Z,1.58
2023-04-18T19:08:44.267Z,2.85
2023-04-18T19:11:13.149Z,2.08
2023-04-18T19:13:41.864Z,1.50
2023-04-18T19:16:10.677Z,1.67
2023-04-18T19:18:41.543Z,1.92
2023-04-18T19:21:11.623Z,1.02
2023-04-18T19:23:41.842Z,1.70
2023-04-18T19:26:11.093Z,0.93
2023-04-18T19:28:39.993Z,1.20
2023-04-18T19:31:09.647Z,1.38
2023-04-18T19:33:39.042Z,1.60
2023-04-18T19:36:08.022Z,1.27
2023-04-18T19:38:38.330Z,1.75
2023-04-18T19:41:08.183Z,1.53
2023-04-18T19:43:47.314Z,2.10
2023-04-18T19:46:21.837Z,1.00
2023-04-18T19:48:50.696Z,1.73
2023-04-18T19:51:24.548Z,1.73
2023-04-18T19:53:55.487Z,1.97
2023-04-18T19:56:24.226Z,1.52
2023-04-18T19:58:53.012Z,0.80
2023-04-18T20:01:22.183Z,1.73
2023-04-18T20:03:51.129Z,1.92
2023-04-18T20:06:20.244Z,1.27
2023-04-18T20:08:48.918Z,1.40
2023-04-18T20:11:19.179Z,1.50
2023-04-18T20:13:47.877Z,0.77
2023-04-18T20:16:16.974Z,0.90
2023-04-18T20:18:47.617Z,1.20
2023-04-18T20:21:16.569Z,1.15
2023-04-18T20:23:45.860Z,0.70
2023-04-18T20:26:14.620Z,1.08
2023-04-18T20:28:44.721Z,0.85
2023-04-18T20:31:13.426Z,1.00
2023-04-18T20:33:42.367Z,1.45
2023-04-18T20:36:10.999Z,1.42
2023-04-18T20:38:40.303Z,0.77
2023-04-18T20:41:10.742Z,1.15
2023-04-18T20:43:41.123Z,1.03
2023-04-18T20:46:12.858Z,0.93
2023-04-18T20:48:41.707Z,0.73
2023-04-18T20:51:10.558Z,0.47
2023-04-18T20:53:39.366Z,0.90
2023-04-18T20:56:08.102Z,1.13
2023-04-18T20:58:36.856Z,0.60
2023-04-18T21:01:05.695Z,0.60
2023-04-18T21:03:35.998Z,0.85
2023-04-18T21:06:05.077Z,1.15
2023-04-18T21:08:37.889Z,0.70
2023-04-18T21:11:08.062Z,0.75
2023-04-18T21:13:36.809Z,1.00
2023-04-18T21:16:07.967Z,0.93
2023-04-18T21:18:38.326Z,1.10
2023-04-18T21:21:07.534Z,0.83
2023-04-18T21:23:43.821Z,0.80
2023-04-18T21:26:13.676Z,0.68
2023-04-18T21:29:00.418Z,0.98
2023-04-18T21:31:32.851Z,0.80
2023-04-18T21:34:04.804Z,0.70
2023-04-18T21:36:34.409Z,0.82
2023-04-18T21:39:04.056Z,1.20
2023-04-18T21:41:32.706Z,0.50
2023-04-18T21:44:01.481Z,0.47
2023-04-18T21:46:30.201Z,0.70
2023-04-18T21:48:58.864Z,3.35
2023-04-18T21:51:28.972Z,0.40
2023-04-18T21:53:57.644Z,0.80
2023-04-18T21:56:26.829Z,0.55
2023-04-18T21:58:55.616Z,0.40
2023-04-18T22:01:24.359Z,0.60
2023-04-18T22:03:53.890Z,0.68
2023-04-18T22:06:27.108Z,0.70
2023-04-18T22:08:58.990Z,0.77
2023-04-18T22:11:30.195Z,0.93
2023-04-18T22:14:03.287Z,0.98
2023-04-18T22:16:33.512Z,1.17
2023-04-18T22:19:04.134Z,1.45
2023-04-18T22:21:33.149Z,1.50
2023-04-18T22:24:06.555Z,1.40
2023-04-18T22:26:37.630Z,1.85
2023-04-18T22:29:08.307Z,1.42
2023-04-18T22:31:38.871Z,1.45
2023-04-18T22:34:09.779Z,0.77
2023-04-18T22:36:38.726Z,1.07
2023-04-18T22:39:10.130Z,1.27
2023-04-18T22:41:38.978Z,1.52
2023-04-18T22:44:08.223Z,0.95
2023-04-18T22:46:45.749Z,1.63
2023-04-18T22:49:18.024Z,0.80
2023-04-18T22:51:50.283Z,0.98
2023-04-18T22:54:22.294Z,0.60
2023-04-18T22:56:52.667Z,0.57
2023-04-18T22:59:24.434Z,0.45
2023-04-18T23:02:02.707Z,0.40
2023-04-18T23:04:35.805Z,0.70
2023-04-18T23:07:06.747Z,0.63
2023-04-18T23:09:46.098Z,0.80
2023-04-18T23:12:14.974Z,0.40
2023-04-18T23:14:50.240Z,2.17
2023-04-18T23:17:23.123Z,4.05
2023-04-18T23:19:58.885Z,2.95
2023-04-18T23:22:30.818Z,1.50
2023-04-18T23:25:02.612Z,1.05
2023-04-18T23:27:33.433Z,1.17
2023-04-18T23:30:03.828Z,0.57
2023-04-18T23:32:36.784Z,0.50
2023-04-18T23:35:07.876Z,1.33
2023-04-18T23:37:36.934Z,1.08
2023-04-18T23:40:10.303Z,0.93
2023-04-18T23:42:40.662Z,1.00
2023-04-18T23:45:10.230Z,1.02
2023-04-18T23:47:39.094Z,1.88
2023-04-18T23:50:09.569Z,2.75
2023-04-18T23:52:38.648Z,2.57
2023-04-18T23:55:10.194Z,2.97
2023-04-18T23:57:38.859Z,3.20
